LGLMLGTS

Guest
Details From LGLM - Limnos
To LGTS - Thessalonik Makedonia
Flight Number -
Tags decoded
Created
Modified
Stats Distance 117 nm / 216 km
Max Altitude 0 ft / 0 m
Waypoints 4
Social Downloads 2
Likes 0
Share VATSIM

Download

Looking for another format? Having issues loading an existing format? Contact us
Advertisement - Login to hide

Notes

Requested: LGLM PEREN UM603 ARNAS LGTS

Route

LGLM PEREN UM603 ARNAS LGTS

ID Type Via Altitude Latitude Longitude Leg Dist Tot Dist Heading (true) Name
O LGLM APT - 0 ft / 0 m 39.91703˚ 25.23635˚ - 0 nm - Limnos
PEREN FIX - 0 ft / 0 m 40.59667˚ 23.96778˚ 71 nm 71 nm 305° / 305° -
ARNAS FIX UM603 (AWY-HI) 0 ft / 0 m 40.52806˚ 23.48056˚ 22 nm 93 nm 260° / 259° -
O LGTS APT - 0 ft / 0 m 40.51952˚ 22.97202˚ 23 nm 116 nm 269° / 269° Thessalonik Makedonia

Altitude Profile

Advertisement - Login to hide

LGLM

Details ICAO LGLM (LXS)
Name Limnos
Region Greece
Timezone Europe/Athens (UTC+2.0)
Stats Elevation 14 ft / 4 m (AMSL)
Location 39.917028° 25.236348°
Runways 1
Magnetic Variation 4.856° E

METAR

LGLM 111850Z 00000KT CAVOK 08/06 Q1021

Decode

TAF

Not found

Departure Runways

ID Width Length Bearing (true) Bearing (mag) Surface Threshold Offset Overrun Length
04R 148 ft / 45 m 9,842 ft / 3,000 m 43.04° 38.18° Asphalt 0 ft / 0 m 920 ft / 280 m
22L 148 ft / 45 m 9,842 ft / 3,000 m 223.05° 218.19° Asphalt 0 ft / 0 m 920 ft / 280 m

LGTS

Details ICAO LGTS (SKG)
Name Thessalonik Makedonia
Region Greece
Timezone Europe/Athens (UTC+2.0)
Stats Elevation 22 ft / 7 m (AMSL)
Location 40.519522° 22.972017°
Runways 2
Magnetic Variation 4.622° E

METAR

LGTS 111850Z VRB02KT CAVOK 05/M01 Q1022 NOSIG

Decode

TAF

TAF LGTS 111700Z 1118/1218 VRB03KT CAVOK BECMG 1201/1203 5000 BR SCT008 PROB40 TEMPO 1203/1207 0800 FG BKN005 BECMG 1207/1209 9999 FEW030

Decode

Destination Runways

ID Width Length Bearing (true) Bearing (mag) Surface Threshold Offset Overrun Length
10 164 ft / 50 m 7,990 ft / 2,435 m 103.95° 99.33° Asphalt 0 ft / 0 m 150 ft / 46 m
16 197 ft / 60 m 7,927 ft / 2,416 m 166.35° 161.73° Asphalt 0 ft / 0 m 200 ft / 61 m
28 164 ft / 50 m 7,990 ft / 2,435 m 283.97° 279.35° Asphalt 0 ft / 0 m 150 ft / 46 m
34 197 ft / 60 m 7,927 ft / 2,416 m 346.36° 341.74° Asphalt 0 ft / 0 m 200 ft / 61 m

Approach Navaids

Runway Type Ident Frequency Range Bearing (true) Bearing (mag) Slope Elevation
10 Localiser IMAK 109.50 MHz 18 nm / 33 km 103.99° 99.36° - 19 ft / 6 m (AMSL)
10 Glidescope IMAK 109.50 MHz 10 nm / 19 km 103.96° 99.34° 3.00° 8 ft / 2 m (AMSL)
10 DME IMAK 109.50 MHz 18 nm / 33 km - - - 8 ft / 2 m (AMSL)
16 Localiser ITSL 110.30 MHz 18 nm / 33 km 166.62° 162.00° - 16 ft / 5 m (AMSL)
16 Glidescope ITSL 110.30 MHz 10 nm / 19 km 166.35° 161.73° 3.00° 16 ft / 5 m (AMSL)
16 DME ITSL 110.30 MHz 18 nm / 33 km - - - 16 ft / 5 m (AMSL)

Popular Alternatives